createdAt,value
2022-08-09T00:04:05.698Z,12.93
2022-08-09T00:06:23.235Z,14.02
2022-08-09T00:08:51.749Z,14.35
2022-08-09T00:11:25.085Z,10.02
2022-08-09T00:13:52.744Z,15.15
2022-08-09T00:16:25.904Z,10.43
2022-08-09T00:18:53.655Z,13.70
2022-08-09T00:21:20.795Z,10.65
2022-08-09T00:23:56.143Z,12.30
2022-08-09T00:26:30.125Z,9.65
2022-08-09T00:29:01.273Z,10.43
2022-08-09T00:31:55.749Z,15.23
2022-08-09T00:34:15.703Z,11.50
2022-08-09T00:36:47.642Z,11.00
2022-08-09T00:40:09.013Z,7.82
2022-08-09T00:44:09.818Z,13.77
2022-08-09T00:47:16.334Z,12.18
2022-08-09T00:49:54.580Z,8.85
2022-08-09T00:52:30.653Z,12.50
2022-08-09T00:55:02.037Z,10.23
2022-08-09T00:57:34.900Z,12.52
2022-08-09T01:00:21.438Z,11.90
2022-08-09T01:03:16.783Z,7.88
2022-08-09T01:05:55.356Z,9.45
2022-08-09T01:08:49.752Z,10.95
2022-08-09T01:11:53.288Z,9.05
2022-08-09T01:14:32.163Z,10.48
2022-08-09T01:17:11.906Z,10.27
2022-08-09T01:20:01.965Z,8.57
2022-08-09T01:24:02.623Z,9.07
2022-08-09T01:26:23.642Z,8.25
2022-08-09T01:28:56.761Z,8.85
2022-08-09T01:32:30.117Z,8.88
2022-08-09T01:34:18.932Z,6.57
2022-08-09T01:36:49.252Z,6.80
2022-08-09T01:39:18.006Z,7.40
2022-08-09T01:41:53.766Z,7.95
2022-08-09T01:44:28.472Z,7.57
2022-08-09T01:46:55.863Z,7.10
2022-08-09T01:49:24.468Z,10.25
2022-08-09T01:51:55.802Z,7.10
2022-08-09T01:54:33.129Z,10.10
2022-08-09T01:57:09.932Z,7.38
2022-08-09T01:59:50.787Z,9.95
2022-08-09T02:02:21.790Z,9.40
2022-08-09T02:04:51.378Z,8.63
2022-08-09T02:08:35.733Z,5.95
2022-08-09T02:10:33.412Z,8.00
2022-08-09T02:13:06.272Z,10.32
2022-08-09T02:15:49.605Z,10.07
2022-08-09T02:18:23.822Z,6.47
2022-08-09T02:20:56.742Z,9.02
2022-08-09T02:23:43.217Z,9.02
2022-08-09T02:26:27.075Z,7.10
2022-08-09T02:29:06.944Z,6.97
2022-08-09T02:31:39.583Z,11.30
2022-08-09T02:34:25.878Z,6.63
2022-08-09T02:37:06.721Z,6.38
2022-08-09T02:39:42.038Z,10.07
2022-08-09T02:42:24.789Z,9.40
2022-08-09T02:45:03.184Z,8.82
2022-08-09T02:47:33.928Z,9.13
2022-08-09T02:50:38.394Z,11.57
2022-08-09T02:53:25.850Z,11.88
2022-08-09T02:55:58.727Z,12.73
2022-08-09T02:58:35.413Z,8.15
2022-08-09T03:01:08.008Z,8.95
2022-08-09T03:04:16.738Z,9.63
2022-08-09T03:06:28.105Z,10.35
2022-08-09T03:08:57.438Z,9.20
2022-08-09T03:11:29.778Z,13.52
2022-08-09T03:14:13.661Z,12.98
2022-08-09T03:16:44.935Z,8.65
2022-08-09T03:19:58.204Z,10.38
2022-08-09T03:22:12.439Z,11.57
2022-08-09T03:25:05.724Z,11.35
2022-08-09T03:27:45.226Z,12.88
2022-08-09T03:30:30.269Z,11.77
2022-08-09T03:33:17.881Z,10.75
2022-08-09T03:36:12.401Z,12.90
2022-08-09T03:38:42.841Z,13.18
2022-08-09T03:41:16.083Z,11.05
2022-08-09T03:44:04.004Z,11.27
2022-08-09T03:46:35.512Z,10.70
2022-08-09T03:49:08.668Z,10.40
2022-08-09T03:51:58.726Z,8.82
2022-08-09T03:54:34.527Z,10.10
2022-08-09T03:57:18.389Z,10.65
2022-08-09T03:59:55.988Z,11.15
2022-08-09T04:02:27.843Z,11.27
2022-08-09T04:05:01.219Z,8.30
2022-08-09T04:07:52.724Z,13.40
2022-08-09T04:10:29.613Z,10.65
2022-08-09T04:13:04.527Z,10.60
2022-08-09T04:15:52.207Z,8.23
2022-08-09T04:18:21.191Z,9.57
2022-08-09T04:20:49.586Z,10.75
2022-08-09T04:23:17.731Z,13.30
2022-08-09T04:25:49.865Z,12.45
2022-08-09T04:28:30.652Z,11.55
2022-08-09T04:31:07.658Z,12.23
2022-08-09T04:33:53.082Z,7.10
2022-08-09T04:36:25.926Z,10.32
2022-08-09T04:38:54.793Z,15.90
2022-08-09T04:41:24.009Z,10.75
2022-08-09T04:44:05.011Z,12.27
2022-08-09T04:46:38.217Z,9.75
2022-08-09T04:52:07.563Z,10.35
2022-08-09T04:54:36.930Z,10.60
2022-08-09T04:57:04.238Z,12.05
2022-08-09T04:59:31.776Z,13.20
2022-08-09T05:01:59.141Z,20.25
2022-08-09T05:04:30.965Z,12.10
2022-08-09T05:06:58.982Z,12.88
2022-08-09T05:09:42.397Z,8.82
2022-08-09T05:12:15.395Z,11.85
2022-08-09T05:14:42.846Z,9.13
2022-08-09T05:17:15.345Z,10.85
2022-08-09T05:22:33.476Z,11.18
2022-08-09T05:25:15.124Z,9.75
2022-08-09T05:27:46.372Z,14.30
2022-08-09T05:30:17.525Z,11.63
2022-08-09T05:32:50.861Z,15.20
2022-08-09T05:35:21.820Z,18.63
2022-08-09T05:37:50.264Z,12.70
2022-08-09T05:40:18.369Z,17.83
2022-08-09T05:42:45.969Z,15.82
2022-08-09T05:45:14.595Z,18.55
2022-08-09T05:47:52.448Z,15.57
2022-08-09T05:50:44.149Z,14.02
2022-08-09T05:53:21.871Z,16.52
2022-08-09T05:55:59.086Z,15.98
2022-08-09T05:58:26.749Z,12.02
2022-08-09T06:00:53.970Z,18.63
2022-08-09T06:03:21.297Z,19.05
2022-08-09T06:05:58.043Z,14.20
2022-08-09T06:08:33.199Z,15.07
2022-08-09T06:11:00.995Z,17.08
2022-08-09T06:13:33.915Z,16.70
2022-08-09T06:16:05.382Z,19.50
2022-08-09T06:18:33.097Z,19.10
2022-08-09T06:21:01.725Z,23.38
2022-08-09T06:23:57.330Z,17.35
2022-08-09T06:26:22.294Z,23.40
2022-08-09T06:29:00.892Z,23.02
2022-08-09T06:31:40.095Z,20.55
2022-08-09T06:34:20.411Z,20.20
2022-08-09T06:36:59.212Z,21.77
2022-08-09T06:39:58.067Z,21.48
2022-08-09T06:46:10.587Z,24.15
2022-08-09T06:48:42.935Z,20.38
2022-08-09T06:51:12.812Z,21.20
2022-08-09T06:53:49.953Z,20.45
2022-08-09T06:56:18.999Z,22.40
2022-08-09T07:00:49.068Z,23.38
2022-08-09T07:01:54.414Z,24.60
2022-08-09T07:04:27.254Z,23.60
2022-08-09T07:07:00.683Z,20.10
2022-08-09T07:09:57.215Z,20.63
2022-08-09T07:12:18.324Z,19.35
2022-08-09T07:14:51.044Z,21.40
2022-08-09T07:17:20.137Z,18.10
2022-08-09T07:19:50.917Z,17.10
2022-08-09T07:22:42.224Z,15.50
2022-08-09T07:25:10.653Z,17.73
2022-08-09T07:27:42.714Z,21.70
2022-08-09T07:30:21.744Z,19.80
2022-08-09T07:32:51.757Z,23.80
2022-08-09T07:35:19.595Z,26.10
2022-08-09T07:37:49.202Z,20.77
2022-08-09T07:40:20.133Z,16.92
2022-08-09T07:43:01.226Z,21.15
2022-08-09T07:45:40.361Z,15.73
2022-08-09T07:48:25.810Z,19.70
2022-08-09T07:51:09.177Z,20.58
2022-08-09T07:54:07.711Z,24.95
2022-08-09T07:56:48.710Z,19.73
2022-08-09T07:59:34.178Z,19.65
2022-08-09T08:02:10.408Z,18.38
2022-08-09T08:04:48.769Z,19.90
2022-08-09T08:08:06.501Z,18.33
2022-08-09T08:10:08.200Z,15.80
2022-08-09T08:12:43.718Z,14.00
2022-08-09T08:15:16.735Z,16.17
2022-08-09T08:17:53.539Z,19.08
2022-08-09T08:20:29.137Z,18.95
2022-08-09T08:23:03.651Z,18.50
2022-08-09T08:25:46.615Z,18.05
2022-08-09T08:28:18.285Z,11.88
2022-08-09T08:31:00.806Z,15.32
2022-08-09T08:33:40.676Z,18.00
2022-08-09T08:36:28.365Z,13.45
2022-08-09T08:38:56.484Z,16.90
2022-08-09T08:41:24.731Z,16.73
2022-08-09T08:44:09.880Z,21.52
2022-08-09T08:46:59.435Z,20.05
2022-08-09T08:49:38.488Z,19.50
2022-08-09T08:52:52.490Z,22.55
2022-08-09T08:55:07.711Z,21.15
2022-08-09T08:57:36.099Z,19.42
2022-08-09T09:00:17.328Z,22.50
2022-08-09T09:02:52.807Z,22.38
2022-08-09T09:05:33.009Z,19.67
2022-08-09T09:08:29.857Z,19.27
2022-08-09T09:11:04.225Z,20.85
2022-08-09T09:13:47.432Z,20.35
2022-08-09T09:16:33.538Z,23.95
2022-08-09T09:22:11.645Z,19.30
2022-08-09T09:24:51.509Z,23.80
2022-08-09T09:28:05.331Z,18.98
2022-08-09T09:30:38.086Z,19.42
2022-08-09T09:33:16.412Z,19.13
2022-08-09T09:36:19.735Z,18.15
2022-08-09T09:38:52.470Z,19.42
2022-08-09T09:41:27.697Z,21.60
2022-08-09T09:44:11.943Z,19.92
2022-08-09T09:46:50.573Z,17.63
2022-08-09T09:49:56.417Z,18.92
2022-08-09T09:52:33.746Z,15.93
2022-08-09T09:55:23.976Z,18.88
2022-08-09T09:58:02.411Z,19.45
2022-08-09T10:00:32.215Z,24.30
2022-08-09T10:03:00.887Z,20.20
2022-08-09T10:06:03.330Z,19.42
2022-08-09T10:08:32.030Z,23.08
2022-08-09T10:10:59.087Z,20.83
2022-08-09T10:13:43.118Z,20.05
2022-08-09T10:16:57.223Z,24.48
2022-08-09T10:19:09.119Z,19.67
2022-08-09T10:21:49.657Z,20.27
2022-08-09T10:24:25.648Z,18.83
2022-08-09T10:27:09.269Z,15.32
2022-08-09T10:30:43.611Z,20.70
2022-08-09T10:32:40.210Z,17.88
2022-08-09T10:35:10.544Z,15.75
2022-08-09T10:37:40.494Z,17.15
2022-08-09T10:40:33.723Z,17.58
2022-08-09T10:43:00.103Z,17.02
2022-08-09T10:45:31.927Z,17.30
2022-08-09T10:48:20.469Z,15.13
2022-08-09T10:51:30.002Z,12.50
2022-08-09T10:54:13.956Z,14.13
2022-08-09T10:56:43.653Z,14.23
2022-08-09T10:59:23.421Z,13.27
2022-08-09T11:03:16.430Z,13.98
2022-08-09T11:05:13.982Z,15.65
2022-08-09T11:07:58.506Z,11.32
2022-08-09T11:10:47.018Z,14.05
2022-08-09T11:13:49.388Z,11.32
2022-08-09T11:16:35.108Z,9.32
2022-08-09T11:19:09.282Z,11.70
2022-08-09T11:21:57.036Z,10.45
2022-08-09T11:25:08.297Z,6.70
2022-08-09T11:28:05.274Z,6.57
2022-08-09T11:30:37.672Z,8.02
2022-08-09T11:33:10.497Z,6.78
2022-08-09T11:35:49.405Z,11.75
2022-08-09T11:38:22.135Z,6.75
2022-08-09T11:40:54.692Z,9.15
2022-08-09T11:43:32.081Z,7.43
2022-08-09T11:46:04.323Z,7.05
2022-08-09T11:48:48.387Z,9.20
2022-08-09T11:52:49.109Z,8.90
2022-08-09T11:54:13.587Z,8.85
2022-08-09T11:56:47.658Z,10.93
2022-08-09T11:59:29.926Z,9.02
2022-08-09T12:02:16.223Z,7.18
2022-08-09T12:04:45.877Z,9.68
2022-08-09T12:07:14.236Z,9.13
2022-08-09T12:09:50.992Z,8.07
2022-08-09T12:12:28.500Z,10.20
2022-08-09T12:15:07.504Z,7.45
2022-08-09T12:17:42.967Z,8.13
2022-08-09T12:20:25.845Z,9.65
2022-08-09T12:22:59.303Z,8.25
2022-08-09T12:25:36.088Z,8.10
2022-08-09T12:29:12.697Z,8.07
2022-08-09T12:31:02.231Z,8.27
2022-08-09T12:33:35.619Z,10.13
2022-08-09T12:36:31.934Z,7.68
2022-08-09T12:39:02.318Z,11.38
2022-08-09T12:41:39.270Z,11.32
2022-08-09T12:44:10.252Z,11.48
2022-08-09T12:46:48.567Z,7.50
2022-08-09T12:49:17.235Z,10.35
2022-08-09T12:52:02.359Z,8.60
2022-08-09T12:56:02.339Z,9.18
2022-08-09T12:57:46.593Z,7.30
2022-08-09T13:00:25.945Z,10.77
2022-08-09T13:02:58.500Z,10.77
2022-08-09T13:05:27.348Z,8.45
2022-08-09T13:08:40.240Z,9.35
2022-08-09T13:11:23.393Z,7.45
2022-08-09T13:14:37.239Z,6.72
2022-08-09T13:16:53.521Z,11.82
2022-08-09T13:20:06.831Z,10.50
2022-08-09T13:22:35.429Z,10.75
2022-08-09T13:25:14.259Z,7.63
2022-08-09T13:27:48.885Z,9.02
2022-08-09T13:30:51.115Z,14.73
2022-08-09T13:33:11.514Z,8.40
2022-08-09T13:36:41.466Z,9.13
2022-08-09T13:38:54.275Z,8.00
2022-08-09T13:41:49.663Z,7.43
2022-08-09T13:44:00.571Z,8.40
2022-08-09T13:47:15.978Z,7.40
2022-08-09T13:49:19.281Z,9.63
2022-08-09T13:51:58.726Z,10.38
2022-08-09T13:54:29.293Z,7.15
2022-08-09T13:56:57.764Z,7.72
2022-08-09T13:59:26.150Z,6.63
2022-08-09T14:02:09.017Z,8.65
2022-08-09T14:04:37.030Z,8.57
2022-08-09T14:07:04.544Z,8.70
2022-08-09T14:09:35.576Z,8.50
2022-08-09T14:12:07.038Z,10.00
2022-08-09T14:14:44.060Z,6.80
2022-08-09T14:17:12.175Z,9.95
2022-08-09T14:19:39.664Z,13.45
2022-08-09T14:22:07.518Z,6.22
2022-08-09T14:24:36.064Z,8.77
2022-08-09T14:27:19.973Z,7.95
2022-08-09T14:30:35.694Z,9.55
2022-08-09T14:32:34.965Z,7.82
2022-08-09T14:35:06.470Z,6.88
2022-08-09T14:37:41.102Z,6.10
2022-08-09T14:40:39.063Z,9.05
2022-08-09T14:43:07.404Z,8.23
2022-08-09T14:46:51.325Z,7.00
2022-08-09T14:48:21.880Z,5.43
2022-08-09T14:50:53.915Z,6.35
2022-08-09T14:53:21.889Z,7.28
2022-08-09T14:55:50.651Z,10.75
2022-08-09T14:58:18.602Z,7.15
2022-08-09T15:00:48.493Z,11.63
2022-08-09T15:03:20.238Z,5.90
2022-08-09T15:05:52.343Z,8.68
2022-08-09T15:08:24.180Z,6.93
2022-08-09T15:11:01.206Z,8.63
2022-08-09T15:13:48.634Z,9.65
2022-08-09T15:16:19.849Z,5.00
2022-08-09T15:18:49.049Z,9.05
2022-08-09T15:22:01.889Z,8.10
2022-08-09T15:24:12.454Z,10.88
2022-08-09T15:26:45.406Z,8.30
2022-08-09T15:30:57.137Z,9.00
2022-08-09T15:32:00.703Z,7.88
2022-08-09T15:34:34.434Z,10.27
2022-08-09T15:37:04.319Z,10.82
2022-08-09T15:39:35.100Z,9.23
2022-08-09T15:42:19.448Z,13.30
2022-08-09T15:44:49.003Z,8.10
2022-08-09T15:47:22.588Z,9.85
2022-08-09T15:50:00.394Z,10.80
2022-08-09T15:52:32.193Z,14.32
2022-08-09T15:55:18.885Z,12.45
2022-08-09T15:57:51.260Z,11.07
2022-08-09T16:00:24.564Z,14.48
2022-08-09T16:02:54.921Z,10.88
2022-08-09T16:05:47.645Z,12.60
2022-08-09T16:08:30.083Z,12.55
2022-08-09T16:11:03.093Z,10.30
2022-08-09T16:14:02.654Z,12.95
2022-08-09T16:16:20.361Z,8.07
2022-08-09T16:18:55.154Z,7.68
2022-08-09T16:21:25.679Z,8.32
2022-08-09T16:23:58.579Z,11.75
2022-08-09T16:26:35.101Z,9.32
2022-08-09T16:29:12.530Z,10.48
2022-08-09T16:32:19.576Z,10.63
2022-08-09T16:34:55.690Z,8.13
2022-08-09T16:37:53.735Z,8.40
2022-08-09T16:40:10.064Z,10.95
2022-08-09T16:42:37.891Z,7.57
2022-08-09T16:45:06.671Z,7.47
2022-08-09T16:48:40.997Z,10.25
2022-08-09T16:50:33.885Z,9.07
2022-08-09T16:53:05.664Z,10.60
2022-08-09T16:55:57.745Z,10.23
2022-08-09T16:58:21.470Z,9.75
2022-08-09T17:00:49.820Z,10.80
2022-08-09T17:03:22.860Z,6.93
2022-08-09T17:06:08.145Z,8.93
2022-08-09T17:08:58.926Z,10.90
2022-08-09T17:11:32.956Z,9.75
2022-08-09T17:14:08.731Z,8.93
2022-08-09T17:16:54.626Z,14.25
2022-08-09T17:19:22.088Z,14.02
2022-08-09T17:21:54.686Z,17.02
2022-08-09T17:24:28.004Z,9.35
2022-08-09T17:26:58.300Z,13.15
2022-08-09T17:29:31.839Z,19.15
2022-08-09T17:32:06.681Z,11.80
2022-08-09T17:35:07.537Z,14.13
2022-08-09T17:37:21.321Z,11.93
2022-08-09T17:39:53.781Z,15.00
2022-08-09T17:42:51.268Z,18.42
2022-08-09T17:45:23.729Z,14.90
2022-08-09T17:48:03.207Z,21.58
2022-08-09T17:50:36.059Z,14.10
2022-08-09T17:53:19.215Z,12.25
2022-08-09T17:55:55.285Z,9.48
2022-08-09T17:58:26.961Z,10.07
2022-08-09T18:00:56.563Z,18.38
2022-08-09T18:03:28.643Z,15.88
2022-08-09T18:05:57.919Z,11.98
2022-08-09T18:08:30.005Z,16.85
2022-08-09T18:11:01.511Z,18.20
2022-08-09T18:13:54.436Z,18.30
2022-08-09T18:16:29.211Z,13.25
2022-08-09T18:18:57.762Z,15.18
2022-08-09T18:21:26.623Z,21.00
2022-08-09T18:24:11.241Z,19.48
2022-08-09T18:26:46.433Z,15.55
2022-08-09T18:30:42.691Z,16.40
2022-08-09T18:32:04.943Z,16.30
2022-08-09T18:34:35.438Z,15.25
2022-08-09T18:37:10.446Z,16.13
2022-08-09T18:39:54.212Z,13.40
2022-08-09T18:42:21.254Z,16.67
2022-08-09T18:44:57.131Z,13.18
2022-08-09T18:47:32.695Z,15.60
2022-08-09T18:50:06.097Z,13.32
2022-08-09T18:52:37.571Z,15.98
2022-08-09T18:55:13.454Z,14.30
2022-08-09T18:57:44.668Z,11.32
2022-08-09T19:00:20.008Z,18.52
2022-08-09T19:02:51.279Z,21.33
2022-08-09T19:05:28.656Z,14.40
2022-08-09T19:08:14.183Z,16.52
2022-08-09T19:10:45.641Z,12.67
2022-08-09T19:13:23.038Z,15.20
2022-08-09T19:16:01.603Z,13.13
2022-08-09T19:18:34.315Z,14.45
2022-08-09T19:21:09.255Z,11.35
2022-08-09T19:24:37.438Z,13.15
2022-08-09T19:26:29.495Z,11.70
2022-08-09T19:29:01.716Z,15.82
2022-08-09T19:31:44.040Z,13.15
2022-08-09T19:34:22.122Z,16.15
2022-08-09T19:36:54.607Z,9.48
2022-08-09T19:39:43.585Z,10.77
2022-08-09T19:42:15.237Z,16.05
2022-08-09T19:44:50.557Z,11.25
2022-08-09T19:47:22.877Z,10.55
2022-08-09T19:50:09.968Z,12.43
2022-08-09T19:52:49.476Z,13.20
2022-08-09T19:55:19.925Z,12.70
2022-08-09T19:57:58.109Z,13.32
2022-08-09T20:00:25.321Z,11.52
2022-08-09T20:04:17.253Z,13.38
2022-08-09T20:05:46.585Z,12.68
2022-08-09T20:08:25.140Z,9.32
2022-08-09T20:11:04.147Z,14.43
2022-08-09T20:13:32.287Z,10.65
2022-08-09T20:16:33.209Z,16.02
2022-08-09T20:19:42.966Z,13.45
2022-08-09T20:21:56.103Z,12.90
2022-08-09T20:24:32.082Z,12.30
2022-08-09T20:27:07.858Z,9.90
2022-08-09T20:29:38.590Z,12.60
2022-08-09T20:32:30.773Z,13.52
2022-08-09T20:34:55.348Z,13.60
2022-08-09T20:37:22.885Z,12.48
2022-08-09T20:40:15.152Z,13.00
2022-08-09T20:42:38.008Z,12.95
2022-08-09T20:46:01.710Z,12.90
2022-08-09T20:47:55.138Z,13.27
2022-08-09T20:50:47.029Z,11.05
2022-08-09T20:53:18.766Z,13.18
2022-08-09T20:56:01.900Z,14.98
2022-08-09T20:58:32.352Z,11.18
2022-08-09T21:01:33.024Z,11.55
2022-08-09T21:05:48.576Z,14.63
2022-08-09T21:06:42.531Z,10.93
2022-08-09T21:09:13.865Z,15.98
2022-08-09T21:16:59.469Z,14.13
2022-08-09T21:20:18.516Z,12.07
2022-08-09T21:22:35.658Z,17.05
2022-08-09T21:25:21.829Z,18.15
2022-08-09T21:27:52.462Z,19.27
2022-08-09T21:30:22.186Z,16.92
2022-08-09T21:32:54.537Z,17.23
2022-08-09T21:35:24.386Z,15.98
2022-08-09T21:38:00.004Z,13.93
2022-08-09T21:40:30.792Z,13.88
2022-08-09T21:43:06.095Z,17.35
2022-08-09T21:45:39.084Z,12.18
2022-08-09T21:48:07.676Z,12.73
2022-08-09T21:50:38.949Z,19.77
2022-08-09T21:53:23.867Z,15.57
2022-08-09T21:56:00.823Z,17.83
2022-08-09T21:58:31.087Z,15.15
2022-08-09T22:00:58.902Z,13.35
2022-08-09T22:03:26.302Z,14.82
2022-08-09T22:05:55.367Z,16.88
2022-08-09T22:08:28.323Z,18.98
2022-08-09T22:11:49.138Z,18.40
2022-08-09T22:13:44.712Z,24.33
2022-08-09T22:16:12.325Z,22.33
2022-08-09T22:18:43.944Z,19.13
2022-08-09T22:21:24.850Z,20.83
2022-08-09T22:24:01.700Z,21.30
2022-08-09T22:26:35.132Z,18.55
2022-08-09T22:29:09.027Z,17.83
2022-08-09T22:31:37.472Z,17.27
2022-08-09T22:34:14.562Z,23.38
2022-08-09T22:36:45.779Z,15.93
2022-08-09T22:39:46.836Z,17.33
2022-08-09T22:42:16.233Z,17.42
2022-08-09T22:45:00.268Z,15.60
2022-08-09T22:48:13.808Z,16.52
2022-08-09T22:50:23.553Z,18.67
2022-08-09T22:52:54.842Z,17.80
2022-08-09T22:55:28.723Z,17.25
2022-08-09T22:58:07.434Z,19.77
2022-08-09T23:00:36.143Z,16.33
2022-08-09T23:03:04.532Z,17.42
2022-08-09T23:05:39.903Z,17.17
2022-08-09T23:08:31.517Z,17.85
2022-08-09T23:10:58.982Z,18.50
2022-08-09T23:13:25.964Z,16.10
2022-08-09T23:16:03.147Z,19.33
2022-08-09T23:18:31.393Z,19.77
2022-08-09T23:20:58.402Z,18.45
2022-08-09T23:23:25.453Z,17.55
2022-08-09T23:25:52.412Z,21.90
2022-08-09T23:28:19.382Z,21.60
2022-08-09T23:30:51.297Z,22.83
2022-08-09T23:33:20.406Z,19.83
2022-08-09T23:36:05.979Z,20.70
2022-08-09T23:38:34.923Z,19.48
2022-08-09T23:41:02.595Z,22.80
2022-08-09T23:43:29.602Z,19.80
2022-08-09T23:45:56.644Z,20.48
2022-08-09T23:48:23.635Z,19.02
2022-08-09T23:50:50.642Z,18.17
2022-08-09T23:53:17.652Z,19.55
2022-08-09T23:55:49.345Z,19.65
2022-08-09T23:58:25.790Z,18.65
